createdAt,value
2022-12-18T00:00:43.617Z,0.18
2022-12-18T00:04:43.769Z,0.02
2022-12-18T00:08:47.847Z,0.27
2022-12-18T00:12:48.003Z,0.30
2022-12-18T00:16:49.597Z,0.17
2022-12-18T00:20:49.683Z,0.18
2022-12-18T00:24:52.364Z,0.12
2022-12-18T00:28:53.747Z,-0.24
2022-12-18T00:32:54.179Z,0.32
2022-12-18T00:36:54.403Z,0.26
2022-12-18T00:40:58.555Z,0.15
2022-12-18T00:44:58.610Z,0.25
2022-12-18T00:48:58.720Z,0.13
2022-12-18T00:52:58.972Z,0.07
2022-12-18T00:57:02.049Z,0.28
2022-12-18T01:01:02.278Z,0.26
2022-12-18T01:05:02.830Z,0.27
2022-12-18T01:09:03.422Z,0.28
2022-12-18T01:13:06.334Z,0.32
2022-12-18T01:17:06.476Z,0.29
2022-12-18T01:21:12.476Z,0.28
2022-12-18T01:25:13.063Z,-0.15
2022-12-18T01:29:15.861Z,-0.12
2022-12-18T01:33:16.263Z,-0.27
2022-12-18T01:37:16.432Z,-0.32
2022-12-18T01:41:19.422Z,-0.33
2022-12-18T01:45:35.491Z,-0.31
2022-12-18T01:49:36.063Z,-0.62
2022-12-18T01:53:37.008Z,-0.52
2022-12-18T01:57:38.568Z,-0.42
2022-12-18T02:01:42.056Z,-0.14
2022-12-18T02:05:51.023Z,-0.26
2022-12-18T02:10:01.349Z,-0.05
2022-12-18T02:14:19.499Z,-0.04
2022-12-18T02:18:27.933Z,0.07
2022-12-18T02:22:39.175Z,0.06
2022-12-18T02:26:49.817Z,0.14
2022-12-18T02:30:54.761Z,0.04
2022-12-18T02:34:59.505Z,0.12
2022-12-18T02:39:05.274Z,0.11
2022-12-18T02:43:17.022Z,0.14
2022-12-18T02:47:21.119Z,0.23
2022-12-18T02:51:32.968Z,0.22
2022-12-18T02:55:56.058Z,0.15
2022-12-18T03:00:08.692Z,-0.11
2022-12-18T03:04:19.262Z,0.09
2022-12-18T03:08:26.006Z,0.01
2022-12-18T03:12:35.087Z,-0.15
2022-12-18T03:16:40.678Z,-0.08
2022-12-18T03:20:46.098Z,-0.18
2022-12-18T03:24:52.747Z,-0.15
2022-12-18T03:28:57.374Z,-0.29
2022-12-18T03:33:11.644Z,-0.06
2022-12-18T03:37:16.045Z,-0.07
2022-12-18T03:41:29.530Z,-0.29
2022-12-18T03:46:06.383Z,-0.20
2022-12-18T03:50:19.195Z,-0.22
2022-12-18T03:54:23.929Z,-0.13
2022-12-18T03:58:34.428Z,0.00
2022-12-18T04:02:52.538Z,-0.04
2022-12-18T04:07:01.995Z,-0.16
2022-12-18T04:11:02.356Z,0.08
2022-12-18T04:15:02.932Z,0.17
2022-12-18T04:19:03.530Z,0.17
2022-12-18T04:23:11.721Z,0.07
2022-12-18T04:27:13.597Z,-0.27
2022-12-18T04:31:18.203Z,-0.29
2022-12-18T04:35:18.680Z,0.11
2022-12-18T04:39:21.931Z,0.09
2022-12-18T04:43:24.376Z,0.21
2022-12-18T04:47:24.542Z,0.56
2022-12-18T04:51:26.704Z,0.49
2022-12-18T04:55:32.738Z,0.34
2022-12-18T04:59:33.007Z,0.33
2022-12-18T05:03:33.172Z,0.25
2022-12-18T05:07:33.416Z,0.55
2022-12-18T05:11:36.289Z,0.42
2022-12-18T05:15:37.575Z,0.71
2022-12-18T05:19:38.192Z,0.75
2022-12-18T05:23:39.446Z,0.65
2022-12-18T05:27:42.479Z,0.64
2022-12-18T05:31:43.008Z,0.70
2022-12-18T05:35:44.622Z,0.57
2022-12-18T05:39:46.083Z,0.38
2022-12-18T05:43:48.890Z,0.87
2022-12-18T05:47:48.933Z,0.75
2022-12-18T05:51:49.142Z,0.67
2022-12-18T05:55:50.295Z,0.81
2022-12-18T05:59:53.042Z,0.37
2022-12-18T06:03:53.263Z,0.61
2022-12-18T06:07:53.422Z,0.80
2022-12-18T06:11:56.374Z,0.71
2022-12-18T06:15:59.059Z,0.49
2022-12-18T06:19:59.200Z,0.69
2022-12-18T06:23:59.444Z,0.91
2022-12-18T06:27:59.502Z,0.90
2022-12-18T06:32:02.579Z,1.10
2022-12-18T06:36:06.355Z,1.16
2022-12-18T06:40:07.453Z,0.91
2022-12-18T06:44:07.914Z,0.93
2022-12-18T06:48:11.035Z,0.67
2022-12-18T06:52:11.291Z,0.91
2022-12-18T06:56:11.746Z,0.69
2022-12-18T07:00:13.542Z,1.01
2022-12-18T07:04:16.353Z,1.04
2022-12-18T07:08:16.450Z,0.81
2022-12-18T07:12:16.555Z,1.04
2022-12-18T07:16:24.810Z,1.20
2022-12-18T07:20:28.277Z,1.20
2022-12-18T07:24:28.485Z,1.13
2022-12-18T07:28:28.584Z,1.09
2022-12-18T07:32:28.662Z,1.08
2022-12-18T07:36:31.654Z,1.17
2022-12-18T07:40:31.800Z,1.10
2022-12-18T07:44:31.904Z,0.83
2022-12-18T07:48:32.613Z,1.16
2022-12-18T07:52:35.388Z,1.31
2022-12-18T07:56:35.524Z,1.38
2022-12-18T08:00:35.672Z,1.30
2022-12-18T08:04:35.766Z,1.30
2022-12-18T08:08:39.314Z,1.33
2022-12-18T08:12:39.540Z,1.48
2022-12-18T08:16:40.675Z,1.46
2022-12-18T08:20:42.976Z,1.54
2022-12-18T08:24:45.896Z,1.25
2022-12-18T08:28:46.558Z,1.41
2022-12-18T08:32:46.689Z,1.00
2022-12-18T08:36:46.777Z,1.58
2022-12-18T08:40:49.689Z,1.54
2022-12-18T08:44:49.846Z,1.88
2022-12-18T08:48:50.804Z,2.00
2022-12-18T08:52:50.974Z,1.97
2022-12-18T08:56:53.615Z,2.20
2022-12-18T09:00:53.760Z,1.77
2022-12-18T09:04:57.297Z,1.94
2022-12-18T09:08:57.967Z,1.92
2022-12-18T09:13:00.679Z,1.15
2022-12-18T09:17:00.853Z,1.63
2022-12-18T09:21:01.043Z,1.61
2022-12-18T09:25:01.104Z,1.79
2022-12-18T09:29:04.656Z,1.62
2022-12-18T09:33:04.749Z,1.84
2022-12-18T09:37:07.110Z,1.56
2022-12-18T09:41:29.444Z,1.82
2022-12-18T09:45:42.250Z,2.12
2022-12-18T09:49:48.846Z,2.19
2022-12-18T09:53:56.299Z,2.09
2022-12-18T09:58:03.331Z,2.32
2022-12-18T10:02:22.463Z,2.35
2022-12-18T10:06:31.022Z,1.63
2022-12-18T10:10:41.825Z,1.13
2022-12-18T10:14:54.706Z,1.78
2022-12-18T10:19:21.718Z,2.05
2022-12-18T10:23:35.496Z,1.80
2022-12-18T10:27:35.895Z,2.13
2022-12-18T10:31:36.824Z,2.15
2022-12-18T10:35:41.347Z,1.80
2022-12-18T10:39:41.665Z,2.00
2022-12-18T10:43:44.232Z,2.22
2022-12-18T10:47:49.399Z,2.21
2022-12-18T10:51:52.836Z,2.31
2022-12-18T10:55:54.766Z,2.06
2022-12-18T10:59:57.979Z,2.20
2022-12-18T11:04:11.485Z,2.37
2022-12-18T11:08:25.620Z,2.40
2022-12-18T11:12:27.476Z,3.28
2022-12-18T11:16:27.880Z,3.27
2022-12-18T11:20:37.675Z,2.64
2022-12-18T11:24:41.483Z,2.41
2022-12-18T11:28:47.407Z,2.46
2022-12-18T11:32:51.009Z,2.56
2022-12-18T11:36:52.369Z,2.85
2022-12-18T11:41:04.197Z,3.15
2022-12-18T11:45:24.050Z,2.74
2022-12-18T11:49:30.637Z,3.16
2022-12-18T11:53:33.691Z,2.98
2022-12-18T11:57:52.272Z,3.24
2022-12-18T12:01:58.978Z,3.10
2022-12-18T12:06:16.126Z,3.14
2022-12-18T12:10:41.851Z,3.14
2022-12-18T12:14:57.291Z,3.07
2022-12-18T12:19:26.922Z,3.29
2022-12-18T12:23:39.883Z,3.40
2022-12-18T12:27:53.746Z,3.81
2022-12-18T12:32:15.131Z,4.13
2022-12-18T12:36:37.746Z,3.50
2022-12-18T12:40:53.771Z,3.83
2022-12-18T12:45:03.223Z,3.76
2022-12-18T12:49:13.461Z,3.59
2022-12-18T12:53:27.584Z,2.94
2022-12-18T12:57:37.370Z,3.30
2022-12-18T13:01:52.495Z,3.13
2022-12-18T13:06:04.210Z,3.06
2022-12-18T13:10:37.868Z,3.31
2022-12-18T13:14:42.341Z,3.79
2022-12-18T13:18:42.875Z,3.91
2022-12-18T13:22:51.267Z,3.62
2022-12-18T13:26:51.568Z,3.62
2022-12-18T13:30:58.400Z,3.81
2022-12-18T13:35:41.984Z,3.40
2022-12-18T13:39:44.871Z,3.55
2022-12-18T13:43:50.606Z,3.34
2022-12-18T13:47:52.430Z,3.22
2022-12-18T13:51:56.714Z,3.26
2022-12-18T13:56:00.563Z,3.07
2022-12-18T14:00:01.557Z,2.96
2022-12-18T14:04:14.991Z,3.13
2022-12-18T14:08:18.975Z,2.89
2022-12-18T14:12:39.229Z,3.03
2022-12-18T14:16:40.649Z,3.00
2022-12-18T14:20:52.681Z,2.88
2022-12-18T14:25:19.642Z,2.73
2022-12-18T14:29:30.106Z,2.02
2022-12-18T14:33:31.746Z,2.10
2022-12-18T14:37:32.196Z,2.33
2022-12-18T14:41:34.117Z,1.96
2022-12-18T14:45:47.241Z,2.20
2022-12-18T14:49:48.282Z,2.07
2022-12-18T14:53:54.937Z,2.25
2022-12-18T14:57:59.621Z,2.08
2022-12-18T15:02:12.291Z,2.08
2022-12-18T15:06:31.616Z,2.05
2022-12-18T15:10:34.249Z,2.02
2022-12-18T15:14:43.191Z,2.27
2022-12-18T15:18:49.047Z,2.28
2022-12-18T15:22:51.869Z,2.41
2022-12-18T15:26:52.084Z,2.26
2022-12-18T15:31:27.257Z,2.25
2022-12-18T15:35:30.034Z,2.07
2022-12-18T15:39:30.454Z,1.91
2022-12-18T15:43:40.503Z,2.05
2022-12-18T15:47:40.857Z,1.88
2022-12-18T15:51:43.750Z,1.65
2022-12-18T15:56:01.385Z,1.41
2022-12-18T16:00:01.757Z,1.25
2022-12-18T16:04:05.061Z,1.16
2022-12-18T16:08:08.192Z,1.09
2022-12-18T16:12:09.142Z,1.01
2022-12-18T16:16:12.442Z,0.97
2022-12-18T16:20:18.421Z,1.02
2022-12-18T16:24:24.955Z,1.02
2022-12-18T16:28:25.197Z,1.09
2022-12-18T16:32:26.319Z,1.00
2022-12-18T16:36:26.480Z,0.59
2022-12-18T16:40:29.195Z,0.69
2022-12-18T16:44:30.089Z,0.76
2022-12-18T16:48:30.388Z,0.66
2022-12-18T16:52:34.951Z,0.50
2022-12-18T16:56:38.073Z,0.47
2022-12-18T17:00:41.604Z,0.25
2022-12-18T17:04:42.037Z,0.34
2022-12-18T17:08:42.115Z,0.44
2022-12-18T17:12:45.113Z,0.38
2022-12-18T17:16:45.791Z,0.25
2022-12-18T17:20:46.050Z,0.38
2022-12-18T17:24:46.123Z,0.44
2022-12-18T17:28:48.775Z,0.49
2022-12-18T17:32:48.949Z,0.45
2022-12-18T17:36:49.118Z,-0.15
2022-12-18T17:40:49.227Z,0.41
2022-12-18T17:44:53.651Z,0.44
2022-12-18T17:48:54.610Z,0.57
2022-12-18T17:52:58.954Z,0.58
2022-12-18T17:56:59.033Z,0.44
2022-12-18T18:01:05.472Z,0.55
2022-12-18T18:05:05.735Z,0.39
2022-12-18T18:09:06.004Z,0.37
2022-12-18T18:13:21.820Z,0.21
2022-12-18T18:17:24.593Z,0.03
2022-12-18T18:21:24.785Z,-0.01
2022-12-18T18:25:25.611Z,-0.05
2022-12-18T18:29:30.360Z,-0.07
2022-12-18T18:33:33.298Z,-0.07
2022-12-18T18:37:33.538Z,-0.04
2022-12-18T18:41:33.659Z,-0.31
2022-12-18T18:45:34.755Z,-0.37
2022-12-18T18:49:37.450Z,-0.45
2022-12-18T18:53:41.018Z,-0.37
2022-12-18T18:57:42.189Z,-0.43
2022-12-18T19:01:42.551Z,-0.52
2022-12-18T19:05:47.618Z,-0.71
2022-12-18T19:09:51.992Z,-0.81
2022-12-18T19:13:52.316Z,-0.83
2022-12-18T19:17:52.978Z,-0.90
2022-12-18T19:21:56.031Z,-0.67
2022-12-18T19:26:17.032Z,-0.95
2022-12-18T19:30:17.036Z,-0.87
2022-12-18T19:34:17.228Z,-0.85
2022-12-18T19:38:20.096Z,-1.06
2022-12-18T19:42:26.234Z,-0.80
2022-12-18T19:46:29.839Z,-1.22
2022-12-18T19:50:30.319Z,-0.75
2022-12-18T19:54:35.536Z,-0.55
2022-12-18T19:58:36.040Z,-0.66
2022-12-18T20:02:37.188Z,-0.73
2022-12-18T20:06:48.285Z,-0.74
2022-12-18T20:10:51.409Z,-1.18
2022-12-18T20:14:51.746Z,-0.99
2022-12-18T20:18:52.434Z,-0.92
2022-12-18T20:22:52.995Z,-1.07
2022-12-18T20:26:56.600Z,-1.06
2022-12-18T20:31:03.084Z,-0.90
2022-12-18T20:35:04.101Z,-1.10
2022-12-18T20:39:13.502Z,-1.54
2022-12-18T20:43:21.355Z,-1.47
2022-12-18T20:47:21.936Z,-1.27
2022-12-18T20:51:24.247Z,-1.24
2022-12-18T20:55:24.623Z,-1.76
2022-12-18T20:59:29.046Z,-1.03
2022-12-18T21:03:29.517Z,-1.10
2022-12-18T21:07:29.869Z,-1.29
2022-12-18T21:11:46.909Z,-1.68
2022-12-18T21:15:49.862Z,-1.77
2022-12-18T21:19:50.076Z,-1.00
2022-12-18T21:23:51.320Z,-1.31
2022-12-18T21:27:51.652Z,-1.39
2022-12-18T21:31:56.135Z,-1.67
2022-12-18T21:35:56.269Z,-1.49
2022-12-18T21:39:56.425Z,-1.48
2022-12-18T21:44:08.589Z,-1.45
2022-12-18T21:48:12.408Z,-1.44
2022-12-18T21:52:12.502Z,-1.59
2022-12-18T21:56:12.649Z,-1.38
2022-12-18T22:00:18.752Z,-1.14
2022-12-18T22:04:24.933Z,-1.05
2022-12-18T22:08:25.923Z,-1.53
2022-12-18T22:12:43.953Z,-1.25
2022-12-18T22:16:46.115Z,-1.27
2022-12-18T22:20:49.569Z,-1.41
2022-12-18T22:24:49.656Z,-1.23
2022-12-18T22:29:02.230Z,-1.16
2022-12-18T22:33:02.380Z,-1.15
2022-12-18T22:37:05.440Z,-0.90
2022-12-18T22:41:05.463Z,-0.94
2022-12-18T22:45:05.898Z,-0.90
2022-12-18T22:49:06.282Z,-0.88
2022-12-18T22:53:10.824Z,-1.00
2022-12-18T22:57:11.884Z,-0.97
2022-12-18T23:01:24.045Z,-0.98
2022-12-18T23:05:24.249Z,-0.94
2022-12-18T23:09:26.914Z,-0.84
2022-12-18T23:13:27.150Z,-0.73
2022-12-18T23:17:27.266Z,-0.81
2022-12-18T23:21:27.911Z,-0.76
2022-12-18T23:25:31.795Z,-0.72
2022-12-18T23:29:31.837Z,-0.63
2022-12-18T23:33:32.330Z,-0.51
2022-12-18T23:37:57.543Z,-0.84
2022-12-18T23:41:55.823Z,-0.71
2022-12-18T23:45:56.699Z,-0.69
2022-12-18T23:49:56.753Z,-0.61
2022-12-18T23:53:59.450Z,-0.75
2022-12-18T23:58:02.151Z,-0.83
